createdAt,value
2022-11-20T00:01:22.593Z,100142.19
2022-11-20T00:03:49.729Z,100133.19
2022-11-20T00:06:18.656Z,100143.13
2022-11-20T00:08:45.970Z,100143.56
2022-11-20T00:11:31.693Z,100142.38
2022-11-20T00:14:01.719Z,100138.25
2022-11-20T00:16:31.089Z,100143.44
2022-11-20T00:18:57.685Z,100132.66
2022-11-20T00:21:26.424Z,100128.78
2022-11-20T00:23:55.503Z,100130.91
2022-11-20T00:26:24.266Z,100133.00
2022-11-20T00:28:56.108Z,100142.38
2022-11-20T00:31:23.296Z,100135.16
2022-11-20T00:33:50.262Z,100140.03
2022-11-20T00:36:19.451Z,100138.69
2022-11-20T00:38:46.717Z,100141.00
2022-11-20T00:41:15.647Z,100137.34
2022-11-20T00:43:42.736Z,100124.72
2022-11-20T00:46:17.545Z,100119.81
2022-11-20T00:48:45.156Z,100123.78
2022-11-20T00:51:13.891Z,100126.00
2022-11-20T00:53:40.712Z,100108.94
2022-11-20T00:56:10.419Z,100103.19
2022-11-20T00:58:39.654Z,100114.13
2022-11-20T01:01:32.832Z,100119.47
2022-11-20T01:04:01.047Z,100112.16
2022-11-20T01:06:31.355Z,100115.38
2022-11-20T01:09:00.285Z,100111.47
2022-11-20T01:11:29.783Z,100113.28
2022-11-20T01:13:57.968Z,100123.13
2022-11-20T01:16:30.839Z,100127.03
2022-11-20T01:19:00.507Z,100126.00
2022-11-20T01:21:32.424Z,100114.88
2022-11-20T01:23:59.834Z,100118.47
2022-11-20T01:26:30.194Z,100119.75
2022-11-20T01:28:59.231Z,100113.75
2022-11-20T01:31:31.701Z,100120.75
2022-11-20T01:34:04.438Z,100119.84
2022-11-20T01:36:32.580Z,100114.28
2022-11-20T01:39:01.405Z,100106.19
2022-11-20T01:41:48.928Z,100110.75
2022-11-20T01:44:17.941Z,100107.13
2022-11-20T01:47:01.721Z,100099.03
2022-11-20T01:49:34.587Z,100105.44
2022-11-20T01:52:06.406Z,100109.91
2022-11-20T01:54:39.846Z,100101.69
2022-11-20T01:57:09.740Z,100098.84
2022-11-20T01:59:41.430Z,100094.69
2022-11-20T02:02:07.997Z,100097.69
2022-11-20T02:04:34.713Z,100100.88
2022-11-20T02:07:03.361Z,100102.91
2022-11-20T02:09:29.945Z,100105.66
2022-11-20T02:11:57.427Z,100103.50
2022-11-20T02:14:24.997Z,100097.22
2022-11-20T02:16:52.218Z,100084.28
2022-11-20T02:19:28.941Z,100084.50
2022-11-20T02:22:01.395Z,100105.44
2022-11-20T02:24:28.038Z,100104.13
2022-11-20T02:27:05.332Z,100097.34
2022-11-20T02:29:53.892Z,100094.94
2022-11-20T02:32:28.326Z,100088.81
2022-11-20T02:34:55.463Z,100091.16
2022-11-20T02:37:22.844Z,100074.91
2022-11-20T02:39:52.265Z,100086.25
2022-11-20T02:42:19.240Z,100078.56
2022-11-20T02:44:45.772Z,100075.94
2022-11-20T02:47:12.298Z,100081.25
2022-11-20T02:49:38.864Z,100084.84
2022-11-20T02:52:05.672Z,100080.06
2022-11-20T02:54:32.133Z,100083.28
2022-11-20T02:56:58.699Z,100088.13
2022-11-20T02:59:25.273Z,100093.38
2022-11-20T03:01:51.863Z,100093.47
2022-11-20T03:04:18.375Z,100097.31
2022-11-20T03:06:44.840Z,100101.59
2022-11-20T03:09:11.362Z,100095.59
2022-11-20T03:11:37.865Z,100097.94
2022-11-20T03:14:05.713Z,100084.19
2022-11-20T03:16:33.498Z,100088.41
2022-11-20T03:19:00.394Z,100079.75
2022-11-20T03:21:27.256Z,100082.06
2022-11-20T03:23:55.328Z,100071.28
2022-11-20T03:26:24.508Z,100057.28
2022-11-20T03:28:53.244Z,100065.09
2022-11-20T03:31:22.556Z,100073.34
2022-11-20T03:33:49.544Z,100077.22
2022-11-20T03:36:17.817Z,100080.44
2022-11-20T03:38:45.128Z,100084.25
2022-11-20T03:41:14.404Z,100076.72
2022-11-20T03:43:41.218Z,100078.03
2022-11-20T03:46:08.547Z,100079.84
2022-11-20T03:48:35.056Z,100085.59
2022-11-20T03:51:18.816Z,100082.91
2022-11-20T03:53:47.034Z,100090.75
2022-11-20T03:56:16.446Z,100079.03
2022-11-20T03:58:46.053Z,100067.34
2022-11-20T04:01:16.384Z,100062.22
2022-11-20T04:03:44.464Z,100074.19
2022-11-20T04:06:13.779Z,100071.78
2022-11-20T04:08:41.176Z,100054.53
2022-11-20T04:11:16.911Z,100047.34
2022-11-20T04:13:47.624Z,100051.00
2022-11-20T04:16:14.400Z,100066.09
2022-11-20T04:18:41.141Z,100065.16
2022-11-20T04:21:08.424Z,100067.41
2022-11-20T04:23:34.952Z,100068.78
2022-11-20T04:26:05.955Z,100068.41
2022-11-20T04:28:32.487Z,100062.22
2022-11-20T04:31:10.760Z,100053.06
2022-11-20T04:33:38.245Z,100042.50
2022-11-20T04:36:12.787Z,100045.50
2022-11-20T04:38:40.227Z,100058.22
2022-11-20T04:41:08.838Z,100066.31
2022-11-20T04:43:35.414Z,100055.94
2022-11-20T04:46:02.427Z,100057.13
2022-11-20T04:48:30.140Z,100050.44
2022-11-20T04:50:57.099Z,100058.97
2022-11-20T04:53:23.700Z,100049.84
2022-11-20T04:55:50.620Z,100047.91
2022-11-20T04:58:17.496Z,100052.28
2022-11-20T05:00:52.684Z,100047.13
2022-11-20T05:03:19.160Z,100035.13
2022-11-20T05:05:45.753Z,100037.63
2022-11-20T05:08:12.287Z,100038.03
2022-11-20T05:10:39.058Z,100046.69
2022-11-20T05:13:05.544Z,100042.97
2022-11-20T05:15:33.268Z,100034.00
2022-11-20T05:17:59.936Z,100031.81
2022-11-20T05:20:26.487Z,100038.81
2022-11-20T05:22:53.024Z,100039.00
2022-11-20T05:25:19.569Z,100037.59
2022-11-20T05:27:46.040Z,100035.44
2022-11-20T05:30:13.675Z,100032.66
2022-11-20T05:32:40.213Z,100034.94
2022-11-20T05:35:07.044Z,100036.00
2022-11-20T05:37:33.780Z,100024.84
2022-11-20T05:40:00.353Z,100032.38
2022-11-20T05:42:32.509Z,100040.09
2022-11-20T05:45:00.102Z,100049.78
2022-11-20T05:47:28.412Z,100041.78
2022-11-20T05:49:55.078Z,100046.59
2022-11-20T05:52:21.870Z,100049.66
2022-11-20T05:54:48.378Z,100034.09
2022-11-20T05:57:14.909Z,100045.66
2022-11-20T05:59:41.759Z,100040.28
2022-11-20T06:02:08.321Z,100040.25
2022-11-20T06:04:34.848Z,100029.91
2022-11-20T06:07:01.415Z,100027.16
2022-11-20T06:09:28.073Z,100025.88
2022-11-20T06:11:54.654Z,100026.34
2022-11-20T06:14:21.132Z,100034.19
2022-11-20T06:16:47.636Z,100034.22
2022-11-20T06:19:14.333Z,100026.66
2022-11-20T06:21:40.840Z,100037.88
2022-11-20T06:24:08.039Z,100041.56
2022-11-20T06:26:34.559Z,100040.13
2022-11-20T06:29:01.099Z,100039.22
2022-11-20T06:31:29.222Z,100028.78
2022-11-20T06:33:55.741Z,100036.25
2022-11-20T06:36:23.701Z,100030.00
2022-11-20T06:38:50.749Z,100024.28
2022-11-20T06:41:20.982Z,100023.53
2022-11-20T06:43:48.043Z,100050.09
2022-11-20T06:46:18.429Z,100042.91
2022-11-20T06:48:45.772Z,100043.34
2022-11-20T06:51:12.565Z,100040.06
2022-11-20T06:53:39.534Z,100041.75
2022-11-20T06:56:06.836Z,100059.53
2022-11-20T06:58:34.956Z,100054.28
2022-11-20T07:01:03.915Z,100047.19
2022-11-20T07:03:30.410Z,100041.03
2022-11-20T07:05:57.845Z,100039.31
2022-11-20T07:08:25.288Z,100036.53
2022-11-20T07:10:52.016Z,100037.00
2022-11-20T07:13:18.561Z,100036.59
2022-11-20T07:15:47.765Z,100039.22
2022-11-20T07:18:14.275Z,100037.59
2022-11-20T07:20:40.863Z,100024.59
2022-11-20T07:23:07.428Z,100033.22
2022-11-20T07:25:33.940Z,100040.91
2022-11-20T07:28:01.551Z,100033.13
2022-11-20T07:30:28.928Z,100035.56
2022-11-20T07:32:56.714Z,100036.56
2022-11-20T07:35:27.059Z,100032.63
2022-11-20T07:37:53.628Z,100035.72
2022-11-20T07:40:20.945Z,100041.44
2022-11-20T07:42:54.469Z,100042.66
2022-11-20T07:45:23.627Z,100042.03
2022-11-20T07:47:50.660Z,100035.13
2022-11-20T07:50:17.760Z,100031.78
2022-11-20T07:52:44.532Z,100037.06
2022-11-20T07:55:14.470Z,100047.72
2022-11-20T07:57:41.060Z,100043.66
2022-11-20T08:00:12.731Z,100051.88
2022-11-20T08:02:40.368Z,100055.59
2022-11-20T08:05:08.305Z,100064.72
2022-11-20T08:07:39.210Z,100065.91
2022-11-20T08:10:07.131Z,100062.00
2022-11-20T08:12:52.350Z,100063.53
2022-11-20T08:15:18.850Z,100067.69
2022-11-20T08:18:02.061Z,100070.19
2022-11-20T08:20:32.498Z,100066.41
2022-11-20T08:23:03.901Z,100068.19
2022-11-20T08:25:30.777Z,100072.13
2022-11-20T08:28:08.977Z,100070.47
2022-11-20T08:30:38.856Z,100075.75
2022-11-20T08:33:08.849Z,100078.66
2022-11-20T08:35:39.420Z,100083.75
2022-11-20T08:38:06.944Z,100086.72
2022-11-20T08:40:34.387Z,100085.34
2022-11-20T08:43:01.760Z,100097.84
2022-11-20T08:45:32.514Z,100088.41
2022-11-20T08:48:02.393Z,100090.56
2022-11-20T08:50:29.328Z,100090.22
2022-11-20T08:52:55.921Z,100096.59
2022-11-20T08:55:22.543Z,100100.69
2022-11-20T08:57:51.095Z,100101.66
2022-11-20T09:00:18.026Z,100092.25
2022-11-20T09:02:44.674Z,100086.66
2022-11-20T09:05:11.316Z,100091.69
2022-11-20T09:07:38.009Z,100086.75
2022-11-20T09:10:23.111Z,100086.44
2022-11-20T09:12:51.549Z,100092.00
2022-11-20T09:15:18.672Z,100096.00
2022-11-20T09:17:56.111Z,100081.84
2022-11-20T09:20:23.074Z,100094.38
2022-11-20T09:22:49.717Z,100095.44
2022-11-20T09:25:16.505Z,100103.22
2022-11-20T09:27:44.994Z,100101.38
2022-11-20T09:30:12.134Z,100101.97
2022-11-20T09:32:39.911Z,100099.50
2022-11-20T09:35:06.873Z,100104.72
2022-11-20T09:37:33.590Z,100097.56
2022-11-20T09:40:00.160Z,100095.59
2022-11-20T09:42:47.688Z,100093.94
2022-11-20T09:45:23.327Z,100092.72
2022-11-20T09:48:12.838Z,100093.69
2022-11-20T09:50:48.888Z,100089.03
2022-11-20T09:53:30.783Z,100095.97
2022-11-20T09:55:57.709Z,100084.38
2022-11-20T09:58:36.651Z,100080.69
2022-11-20T10:01:12.487Z,100091.47
2022-11-20T10:03:53.856Z,100078.72
2022-11-20T10:06:30.346Z,100073.50
2022-11-20T10:09:15.260Z,100072.00
2022-11-20T10:12:00.308Z,100072.66
2022-11-20T10:14:39.669Z,100065.66
2022-11-20T10:17:34.690Z,100058.72
2022-11-20T10:20:01.174Z,100069.91
2022-11-20T10:22:49.547Z,100060.31
2022-11-20T10:25:29.421Z,100057.84
2022-11-20T10:28:19.719Z,100061.50
2022-11-20T10:30:50.104Z,100056.94
2022-11-20T10:33:20.614Z,100056.03
2022-11-20T10:35:56.459Z,100061.88
2022-11-20T10:38:27.138Z,100061.53
2022-11-20T10:41:21.609Z,100065.09
2022-11-20T10:43:51.582Z,100065.97
2022-11-20T10:46:23.289Z,100060.25
2022-11-20T10:48:50.838Z,100057.63
2022-11-20T10:52:02.603Z,100054.94
2022-11-20T10:54:48.563Z,100053.31
2022-11-20T10:57:21.171Z,100044.00
2022-11-20T11:00:01.588Z,100044.00
2022-11-20T11:02:48.032Z,100043.78
2022-11-20T11:05:41.625Z,100037.16
2022-11-20T11:08:14.647Z,100037.75
2022-11-20T11:10:47.247Z,100037.03
2022-11-20T11:13:28.882Z,100024.31
2022-11-20T11:15:56.584Z,100030.69
2022-11-20T11:18:31.531Z,100029.84
2022-11-20T11:21:01.686Z,100024.59
2022-11-20T11:23:40.889Z,100035.03
2022-11-20T11:26:28.135Z,100022.09
2022-11-20T11:29:00.319Z,100022.09
2022-11-20T11:31:35.276Z,100015.41
2022-11-20T11:34:16.112Z,100010.66
2022-11-20T11:36:50.584Z,100012.75
2022-11-20T11:39:19.938Z,100004.44
2022-11-20T11:41:47.391Z,100008.59
2022-11-20T11:44:41.425Z,99997.91
2022-11-20T11:47:27.333Z,100001.16
2022-11-20T11:50:14.213Z,99994.50
2022-11-20T11:52:51.064Z,99993.31
2022-11-20T11:55:48.824Z,100001.72
2022-11-20T11:58:35.728Z,99992.94
2022-11-20T12:01:15.599Z,99991.34
2022-11-20T12:03:45.540Z,99991.56
2022-11-20T12:06:15.494Z,99985.63
2022-11-20T12:08:54.144Z,99982.22
2022-11-20T12:11:59.650Z,99980.13
2022-11-20T12:14:35.376Z,99980.06
2022-11-20T12:17:03.754Z,99971.41
2022-11-20T12:19:34.410Z,99964.91
2022-11-20T12:22:06.166Z,99965.72
2022-11-20T12:25:20.383Z,99968.22
2022-11-20T12:28:00.439Z,99971.97
2022-11-20T12:30:27.142Z,99963.94
2022-11-20T12:33:16.232Z,99972.91
2022-11-20T12:35:52.254Z,99971.91
2022-11-20T12:38:21.937Z,99972.28
2022-11-20T12:41:06.792Z,99976.34
2022-11-20T12:44:04.321Z,99985.06
2022-11-20T12:46:37.238Z,99982.22
2022-11-20T12:49:14.725Z,99970.41
2022-11-20T12:51:48.283Z,99975.09
2022-11-20T12:54:29.003Z,99965.59
2022-11-20T12:57:19.350Z,99959.38
2022-11-20T13:00:07.148Z,99960.41
2022-11-20T13:02:55.233Z,99966.53
2022-11-20T13:05:46.231Z,99958.63
2022-11-20T13:08:24.022Z,99962.47
2022-11-20T13:10:58.189Z,99962.84
2022-11-20T13:13:53.759Z,99955.63
2022-11-20T13:16:30.931Z,99954.31
2022-11-20T13:19:01.479Z,99950.88
2022-11-20T13:21:43.312Z,99946.88
2022-11-20T13:24:26.956Z,99935.66
2022-11-20T13:27:08.657Z,99937.31
2022-11-20T13:29:37.440Z,99938.19
2022-11-20T13:32:21.860Z,99929.78
2022-11-20T13:35:03.475Z,99925.75
2022-11-20T13:37:31.816Z,99921.28
2022-11-20T13:40:11.234Z,99916.13
2022-11-20T13:42:46.312Z,99915.38
2022-11-20T13:45:25.243Z,99904.25
2022-11-20T13:47:53.266Z,99908.25
2022-11-20T13:50:22.495Z,99907.31
2022-11-20T13:52:58.033Z,99915.69
2022-11-20T13:55:47.136Z,99909.06
2022-11-20T13:58:32.911Z,99908.31
2022-11-20T14:01:09.086Z,99906.25
2022-11-20T14:04:07.236Z,99900.22
2022-11-20T14:06:29.206Z,99904.00
2022-11-20T14:08:56.883Z,99908.63
2022-11-20T14:11:26.389Z,99908.03
2022-11-20T14:14:06.327Z,99900.41
2022-11-20T14:16:36.103Z,99901.16
2022-11-20T14:19:21.006Z,99905.47
2022-11-20T14:21:53.687Z,99898.41
2022-11-20T14:24:22.987Z,99900.34
2022-11-20T14:26:51.272Z,99880.16
2022-11-20T14:29:27.024Z,99879.97
2022-11-20T14:31:54.969Z,99879.94
2022-11-20T14:34:25.886Z,99877.88
2022-11-20T14:36:57.064Z,99870.13
2022-11-20T14:39:30.117Z,99873.16
2022-11-20T14:41:56.711Z,99860.88
2022-11-20T14:44:34.801Z,99861.38
2022-11-20T14:47:03.709Z,99865.06
2022-11-20T14:49:32.265Z,99863.78
2022-11-20T14:52:04.019Z,99868.31
2022-11-20T14:54:31.567Z,99867.88
2022-11-20T14:57:05.121Z,99861.34
2022-11-20T14:59:34.459Z,99859.78
2022-11-20T15:02:09.033Z,99837.88
2022-11-20T15:05:05.785Z,99833.41
2022-11-20T15:07:35.289Z,99841.31
2022-11-20T15:10:07.134Z,99838.38
2022-11-20T15:12:36.775Z,99831.03
2022-11-20T15:15:04.351Z,99836.91
2022-11-20T15:17:32.637Z,99837.28
2022-11-20T15:20:02.833Z,99831.38
2022-11-20T15:22:29.392Z,99830.56
2022-11-20T15:24:56.025Z,99818.84
2022-11-20T15:27:22.658Z,99831.75
2022-11-20T15:29:49.246Z,99823.13
2022-11-20T15:32:15.816Z,99816.25
2022-11-20T15:34:42.916Z,99821.22
2022-11-20T15:37:09.534Z,99807.22
2022-11-20T15:39:36.132Z,99809.13
2022-11-20T15:42:02.642Z,99808.25
2022-11-20T15:44:29.196Z,99806.19
2022-11-20T15:46:55.723Z,99818.31
2022-11-20T15:49:24.236Z,99813.25
2022-11-20T15:51:51.037Z,99806.28
2022-11-20T15:54:21.434Z,99809.41
2022-11-20T15:56:49.883Z,99803.22
2022-11-20T15:59:16.463Z,99791.03
2022-11-20T16:01:43.497Z,99799.81
2022-11-20T16:04:15.960Z,99790.63
2022-11-20T16:06:42.484Z,99788.81
2022-11-20T16:09:26.690Z,99783.50
2022-11-20T16:11:53.191Z,99782.22
2022-11-20T16:14:38.464Z,99781.53
2022-11-20T16:17:05.260Z,99774.03
2022-11-20T16:19:31.801Z,99772.22
2022-11-20T16:22:02.722Z,99768.75
2022-11-20T16:24:30.290Z,99773.31
2022-11-20T16:26:57.448Z,99763.63
2022-11-20T16:29:23.946Z,99761.75
2022-11-20T16:31:50.539Z,99762.91
2022-11-20T16:34:17.868Z,99754.47
2022-11-20T16:36:45.843Z,99752.53
2022-11-20T16:39:12.812Z,99738.38
2022-11-20T16:41:39.365Z,99736.75
2022-11-20T16:44:10.821Z,99734.34
2022-11-20T16:46:37.519Z,99723.13
2022-11-20T16:49:06.802Z,99719.47
2022-11-20T16:51:36.332Z,99717.66
2022-11-20T16:54:05.252Z,99714.00
2022-11-20T16:56:31.876Z,99709.59
2022-11-20T16:58:59.950Z,99709.25
2022-11-20T17:01:28.737Z,99715.78
2022-11-20T17:04:00.648Z,99717.59
2022-11-20T17:06:30.216Z,99722.28
2022-11-20T17:08:57.984Z,99719.03
2022-11-20T17:11:27.877Z,99721.97
2022-11-20T17:14:01.101Z,99717.09
2022-11-20T17:16:27.722Z,99713.84
2022-11-20T17:18:59.730Z,99701.66
2022-11-20T17:21:32.601Z,99706.59
2022-11-20T17:24:04.630Z,99709.66
2022-11-20T17:26:31.963Z,99700.00
2022-11-20T17:29:03.644Z,99706.88
2022-11-20T17:31:31.814Z,99702.09
2022-11-20T17:34:00.323Z,99700.97
2022-11-20T17:36:27.990Z,99697.25
2022-11-20T17:38:55.124Z,99690.34
2022-11-20T17:41:23.202Z,99688.06
2022-11-20T17:43:50.022Z,99676.00
2022-11-20T17:46:19.238Z,99678.50
2022-11-20T17:48:47.192Z,99673.97
2022-11-20T17:51:24.739Z,99670.81
2022-11-20T17:54:00.774Z,99651.44
2022-11-20T17:56:50.485Z,99662.13
2022-11-20T17:59:18.598Z,99654.34
2022-11-20T18:01:45.630Z,99660.50
2022-11-20T18:04:13.014Z,99651.50
2022-11-20T18:06:39.893Z,99653.59
2022-11-20T18:09:06.964Z,99645.69
2022-11-20T18:11:36.554Z,99646.78
2022-11-20T18:14:24.801Z,99644.81
2022-11-20T18:17:01.363Z,99639.91
2022-11-20T18:19:32.665Z,99623.78
2022-11-20T18:22:01.558Z,99613.94
2022-11-20T18:24:28.325Z,99613.00
2022-11-20T18:26:55.148Z,99606.69
2022-11-20T18:29:22.268Z,99607.75
2022-11-20T18:31:49.872Z,99598.69
2022-11-20T18:34:16.527Z,99601.41
2022-11-20T18:36:45.094Z,99601.00
2022-11-20T18:39:13.860Z,99589.69
2022-11-20T18:41:59.923Z,99585.56
2022-11-20T18:44:50.609Z,99576.53
2022-11-20T18:47:22.811Z,99576.91
2022-11-20T18:49:55.187Z,99569.38
2022-11-20T18:52:24.563Z,99567.25
2022-11-20T18:54:51.407Z,99564.94
2022-11-20T18:57:23.389Z,99561.41
2022-11-20T18:59:50.063Z,99561.66
2022-11-20T19:02:19.159Z,99559.81
2022-11-20T19:04:45.782Z,99553.81
2022-11-20T19:07:13.224Z,99551.59
2022-11-20T19:09:41.019Z,99553.94
2022-11-20T19:12:09.298Z,99546.03
2022-11-20T19:14:35.969Z,99549.19
2022-11-20T19:17:03.924Z,99555.09
2022-11-20T19:19:30.465Z,99545.69
2022-11-20T19:21:57.003Z,99546.63
2022-11-20T19:24:24.380Z,99545.09
2022-11-20T19:26:51.068Z,99539.56
2022-11-20T19:29:17.737Z,99545.16
2022-11-20T19:31:44.434Z,99537.34
2022-11-20T19:34:12.028Z,99538.59
2022-11-20T19:36:44.492Z,99536.69
2022-11-20T19:39:12.054Z,99538.81
2022-11-20T19:41:40.126Z,99531.44
2022-11-20T19:44:12.334Z,99514.03
2022-11-20T19:46:39.860Z,99522.16
2022-11-20T19:49:09.998Z,99509.41
2022-11-20T19:51:38.059Z,99511.09
2022-11-20T19:54:05.532Z,99517.41
2022-11-20T19:56:33.469Z,99510.53
2022-11-20T19:59:00.413Z,99505.97
2022-11-20T20:01:29.559Z,99499.97
2022-11-20T20:04:01.296Z,99491.94
2022-11-20T20:06:28.525Z,99489.09
2022-11-20T20:09:11.957Z,99487.50
2022-11-20T20:11:39.926Z,99488.09
2022-11-20T20:14:09.899Z,99481.19
2022-11-20T20:16:36.665Z,99482.53
2022-11-20T20:19:06.107Z,99486.50
2022-11-20T20:21:34.995Z,99477.91
2022-11-20T20:24:02.108Z,99479.63
2022-11-20T20:26:30.990Z,99468.66
2022-11-20T20:28:57.910Z,99467.38
2022-11-20T20:31:26.979Z,99459.56
2022-11-20T20:33:54.332Z,99457.66
2022-11-20T20:36:22.265Z,99461.44
2022-11-20T20:38:55.750Z,99456.09
2022-11-20T20:41:23.718Z,99451.66
2022-11-20T20:44:09.067Z,99462.84
2022-11-20T20:46:35.587Z,99456.16
2022-11-20T20:49:02.136Z,99456.09
2022-11-20T20:51:28.936Z,99465.88
2022-11-20T20:53:55.793Z,99458.41
2022-11-20T20:56:22.392Z,99468.75
2022-11-20T20:58:49.029Z,99467.69
2022-11-20T21:01:17.903Z,99463.88
2022-11-20T21:03:44.694Z,99460.81
2022-11-20T21:06:11.871Z,99462.41
2022-11-20T21:08:40.738Z,99466.78
2022-11-20T21:11:11.011Z,99473.28
2022-11-20T21:13:39.017Z,99457.97
2022-11-20T21:16:06.168Z,99459.88
2022-11-20T21:18:33.406Z,99464.03
2022-11-20T21:21:19.203Z,99460.16
2022-11-20T21:23:47.504Z,99453.53
2022-11-20T21:26:15.753Z,99445.13
2022-11-20T21:28:43.026Z,99446.53
2022-11-20T21:31:12.418Z,99435.00
2022-11-20T21:33:40.978Z,99429.03
2022-11-20T21:36:08.853Z,99437.50
2022-11-20T21:38:35.975Z,99438.78
2022-11-20T21:41:04.410Z,99427.84
2022-11-20T21:43:30.979Z,99440.94
2022-11-20T21:46:05.877Z,99448.94
2022-11-20T21:48:33.946Z,99448.16
2022-11-20T21:51:10.635Z,99454.00
2022-11-20T21:53:37.654Z,99448.69
2022-11-20T21:56:06.315Z,99452.72
2022-11-20T21:58:34.748Z,99451.22
2022-11-20T22:01:09.917Z,99454.84
2022-11-20T22:03:37.799Z,99447.69
2022-11-20T22:06:06.666Z,99448.16
2022-11-20T22:08:37.780Z,99453.41
2022-11-20T22:11:07.845Z,99441.84
2022-11-20T22:13:53.466Z,99446.81
2022-11-20T22:16:20.451Z,99432.50
2022-11-20T22:18:51.714Z,99410.69
2022-11-20T22:21:20.614Z,99409.78
2022-11-20T22:23:47.956Z,99412.09
2022-11-20T22:26:39.875Z,99423.03
2022-11-20T22:29:07.503Z,99422.63
2022-11-20T22:31:34.065Z,99426.66
2022-11-20T22:34:02.691Z,99431.25
2022-11-20T22:36:31.041Z,99423.06
2022-11-20T22:38:58.240Z,99420.53
2022-11-20T22:41:27.451Z,99429.56
2022-11-20T22:43:58.916Z,99430.81
2022-11-20T22:46:27.159Z,99427.03
2022-11-20T22:48:54.660Z,99418.28
2022-11-20T22:51:26.455Z,99422.94
2022-11-20T22:53:53.679Z,99431.69
2022-11-20T22:56:20.615Z,99433.13
2022-11-20T22:58:49.187Z,99427.44
2022-11-20T23:01:18.125Z,99424.16
2022-11-20T23:03:49.558Z,99414.09
2022-11-20T23:06:18.541Z,99418.91
2022-11-20T23:08:45.744Z,99423.75
2022-11-20T23:11:17.954Z,99424.25
2022-11-20T23:13:45.690Z,99417.78
2022-11-20T23:16:17.666Z,99426.13
2022-11-20T23:18:44.763Z,99423.31
2022-11-20T23:21:14.454Z,99434.50
2022-11-20T23:23:41.566Z,99421.53
2022-11-20T23:26:10.812Z,99434.06
2022-11-20T23:28:38.316Z,99429.69
2022-11-20T23:31:05.560Z,99428.13
2022-11-20T23:33:34.754Z,99437.44
2022-11-20T23:36:01.615Z,99439.78
2022-11-20T23:38:28.100Z,99438.19
2022-11-20T23:40:54.547Z,99435.28
2022-11-20T23:43:22.359Z,99428.44
2022-11-20T23:45:53.671Z,99425.00
2022-11-20T23:48:21.752Z,99434.72
2022-11-20T23:50:48.514Z,99439.44
2022-11-20T23:53:16.099Z,99436.78
2022-11-20T23:55:50.091Z,99438.41
2022-11-20T23:58:16.679Z,99429.50
